Time;durP1;ratioP1;P1;durP2;ratioP2;P2;SDS_P1;SDS_P2;PMS_P1;PMS_P2;Temp;Humidity;BMP_temperature;BMP_pressure;BME280_temperature;BME280_humidity;BME280_pressure;Samples;Min_cycle;Max_cycle;Signal;HPM_P1;HPM_P2
2023/12/28 00:01:20;;;;;;;25.60;11.48;;;;;;;7.77;64.31;100787.47;5030196;28;20037;-37
2023/12/28 00:03:45;;;;;;;27.27;11.90;;;;;;;7.87;65.08;100790.81;5030618;28;20065;-40
2023/12/28 00:06:11;;;;;;;22.42;11.73;;;;;;;7.96;65.51;100778.44;5030489;28;20033;-40
2023/12/28 00:08:36;;;;;;;21.65;11.65;;;;;;;7.74;66.17;100774.53;5030379;28;20026;-39
2023/12/28 00:11:01;;;;;;;20.00;10.70;;;;;;;7.88;65.60;100792.47;5030097;28;20044;-40
2023/12/28 00:13:27;;;;;;;19.38;10.35;;;;;;;7.87;65.83;100792.63;5030225;28;20025;-40
2023/12/28 00:15:52;;;;;;;23.90;11.50;;;;;;;7.65;64.56;100797.50;5030227;28;20049;-39
2023/12/28 00:18:17;;;;;;;19.70;11.15;;;;;;;7.55;66.41;100804.75;5030486;28;20025;-40
2023/12/28 00:20:43;;;;;;;19.20;10.70;;;;;;;7.51;66.28;100806.06;5030231;28;20045;-40
2023/12/28 00:23:08;;;;;;;18.33;9.80;;;;;;;7.56;66.19;100809.88;5027968;28;20034;-40
2023/12/28 00:25:33;;;;;;;17.92;9.63;;;;;;;7.43;67.30;100815.59;5023714;28;20098;-40
2023/12/28 00:27:59;;;;;;;19.15;9.50;;;;;;;7.32;66.77;100817.69;5030079;28;20044;-40
2023/12/28 00:30:24;;;;;;;15.68;8.45;;;;;;;7.26;67.64;100823.63;5030121;28;20136;-39
2023/12/28 00:32:49;;;;;;;14.23;8.05;;;;;;;7.31;68.58;100829.25;5030119;28;20025;-40
2023/12/28 00:35:15;;;;;;;15.27;7.95;;;;;;;7.68;66.51;100831.63;5030158;28;20040;-37
2023/12/28 00:37:40;;;;;;;15.35;8.50;;;;;;;7.49;66.56;100834.50;5027032;28;20029;-40
2023/12/28 00:40:06;;;;;;;14.45;7.97;;;;;;;7.18;67.43;100837.63;5017019;28;20548;-40
2023/12/28 00:42:31;;;;;;;15.88;7.68;;;;;;;7.05;68.11;100833.56;5015612;28;20065;-40
2023/12/28 00:44:57;;;;;;;15.13;7.97;;;;;;;7.28;67.20;100838.34;5029449;28;20501;-40
2023/12/28 00:47:22;;;;;;;16.77;7.70;;;;;;;7.23;67.38;100835.31;5029166;28;20044;-38
2023/12/28 00:49:47;;;;;;;15.02;7.75;;;;;;;7.37;66.63;100840.06;5029303;28;20044;-39
2023/12/28 00:52:13;;;;;;;13.05;7.50;;;;;;;7.27;67.07;100825.25;5029246;28;20079;-39
2023/12/28 00:54:38;;;;;;;12.45;6.63;;;;;;;7.35;67.11;100844.69;5028955;28;20083;-39
2023/12/28 00:57:04;;;;;;;11.93;6.47;;;;;;;7.50;65.78;100844.09;5028948;28;20029;-40
2023/12/28 00:59:30;;;;;;;14.43;6.20;;;;;;;7.44;67.16;100848.22;5028792;28;20096;-37
2023/12/28 01:01:56;;;;;;;13.27;6.70;;;;;;;7.37;65.33;100855.13;5028849;28;20021;-40
2023/12/28 01:04:24;;;;;;;11.27;6.90;;;;;;;7.43;66.91;100862.44;5028751;28;20021;-39
2023/12/28 01:06:50;;;;;;;11.82;6.50;;;;;;;7.64;65.58;100859.44;5032470;28;20026;-39
2023/12/28 01:09:15;;;;;;;14.63;7.10;;;;;;;7.45;66.15;100863.13;5032558;28;20025;-40
2023/12/28 01:11:41;;;;;;;22.58;7.20;;;;;;;7.50;65.33;100865.28;5032383;28;20501;-38
2023/12/28 01:14:06;;;;;;;27.17;7.80;;;;;;;7.30;65.87;100857.56;5032411;28;20537;-39
2023/12/28 01:16:32;;;;;;;19.63;7.97;;;;;;;7.23;65.87;100860.00;5032345;28;20025;-39
2023/12/28 01:18:57;;;;;;;20.25;7.97;;;;;;;7.15;66.57;100862.56;5032543;28;20021;-37
2023/12/28 01:21:24;;;;;;;15.68;7.22;;;;;;;7.09;67.56;100857.09;5032596;28;20022;-36
2023/12/28 01:23:50;;;;;;;14.98;7.38;;;;;;;6.84;66.87;100855.03;5032510;28;20023;-39
2023/12/28 01:26:16;;;;;;;13.32;7.35;;;;;;;7.14;66.46;100844.19;5032149;28;20013;-39
2023/12/28 01:28:42;;;;;;;16.42;6.35;;;;;;;7.06;65.46;100858.19;5032083;28;20109;-37
2023/12/28 01:31:08;;;;;;;11.57;6.93;;;;;;;7.04;65.18;100860.16;5032192;28;20104;-37
2023/12/28 01:33:35;;;;;;;11.25;6.45;;;;;;;6.89;65.75;100864.34;5032236;28;20030;-38
2023/12/28 01:36:01;;;;;;;13.93;7.00;;;;;;;6.91;66.01;100859.72;5024284;28;20034;-36
2023/12/28 01:38:27;;;;;;;15.35;6.90;;;;;;;6.73;67.35;100862.38;5012126;28;20084;-36
2023/12/28 01:40:53;;;;;;;11.30;6.18;;;;;;;7.16;65.46;100856.31;5011806;28;20022;-37
2023/12/28 01:43:18;;;;;;;12.23;6.75;;;;;;;6.51;66.52;100856.56;5019702;28;20022;-36
2023/12/28 01:45:44;;;;;;;12.85;6.82;;;;;;;6.63;66.34;100855.34;5031250;28;20098;-38
2023/12/28 01:48:10;;;;;;;11.73;6.60;;;;;;;6.30;67.34;100859.47;5031585;28;20048;-39
2023/12/28 01:50:36;;;;;;;12.63;6.57;;;;;;;6.46;67.15;100859.63;5031591;28;20671;-38
2023/12/28 01:53:03;;;;;;;10.95;6.00;;;;;;;6.62;65.97;100874.84;5032061;28;20075;-37
2023/12/28 01:55:30;;;;;;;10.75;5.80;;;;;;;6.76;65.54;100868.22;5031790;28;20028;-39
2023/12/28 01:57:57;;;;;;;12.98;6.32;;;;;;;6.38;66.60;100869.31;5031675;28;20541;-38
2023/12/28 02:00:22;;;;;;;12.05;6.50;;;;;;;6.44;68.56;100860.78;5031341;28;20025;-38
2023/12/28 02:02:48;;;;;;;11.95;6.78;;;;;;;6.48;68.33;100867.44;5031636;28;20076;-39
2023/12/28 02:05:14;;;;;;;15.27;7.00;;;;;;;6.67;67.46;100857.72;5031618;28;20091;-39
2023/12/28 02:07:40;;;;;;;18.48;8.30;;;;;;;6.62;66.09;100877.47;5031517;28;20025;-39
2023/12/28 02:10:07;;;;;;;14.27;7.20;;;;;;;6.25;67.53;100873.13;5031483;28;20032;-38
2023/12/28 02:12:33;;;;;;;14.68;7.10;;;;;;;5.67;69.96;100866.28;5031318;28;20044;-36
2023/12/28 02:14:59;;;;;;;11.40;6.65;;;;;;;5.72;70.08;100865.00;5031144;28;20454;-37
2023/12/28 02:17:33;;;;;;;13.45;6.53;;;;;;;5.86;70.40;100852.16;5031465;28;20026;-38
2023/12/28 02:20:00;;;;;;;11.27;6.13;;;;;;;5.84;70.00;100864.66;5031522;28;20036;-36
2023/12/28 02:22:27;;;;;;;13.27;6.38;;;;;;;6.17;69.98;100869.53;5031259;28;20034;-39
2023/12/28 02:24:55;;;;;;;15.02;7.30;;;;;;;6.10;69.77;100874.59;5031264;28;20025;-39
2023/12/28 02:27:21;;;;;;;13.40;7.00;;;;;;;6.21;69.02;100877.06;5031098;28;20096;-39
2023/12/28 02:29:46;;;;;;;15.68;7.35;;;;;;;5.87;70.09;100869.66;5030777;28;20108;-36
2023/12/28 02:32:12;;;;;;;12.93;7.07;;;;;;;5.86;70.15;100877.72;5031012;28;20040;-38
2023/12/28 02:34:44;;;;;;;15.63;7.28;;;;;;;5.76;70.36;100869.00;5030865;28;20031;-36
2023/12/28 02:37:13;;;;;;;16.17;7.15;;;;;;;5.64;71.08;100871.00;5031084;28;20063;-40
2023/12/28 02:39:40;;;;;;;13.50;7.10;;;;;;;5.64;70.64;100871.84;5030865;28;20033;-37
2023/12/28 02:42:05;;;;;;;14.20;7.57;;;;;;;5.86;71.11;100875.94;5030755;28;20030;-38
2023/12/28 02:44:30;;;;;;;16.67;7.03;;;;;;;5.71;72.21;100887.09;5030500;28;20056;-39
2023/12/28 02:46:56;;;;;;;12.93;6.72;;;;;;;5.92;70.34;100887.72;5030501;28;20104;-39
2023/12/28 02:49:21;;;;;;;12.73;6.75;;;;;;;6.00;70.45;100892.31;5030076;28;20122;-39
2023/12/28 02:51:47;;;;;;;15.68;7.30;;;;;;;5.88;69.02;100889.84;5029726;28;20029;-37
2023/12/28 02:54:13;;;;;;;14.63;6.85;;;;;;;5.99;69.55;100888.00;5030036;28;20091;-39
2023/12/28 02:56:40;;;;;;;14.30;7.68;;;;;;;5.86;69.05;100883.00;5030183;28;20053;-39
2023/12/28 02:59:05;;;;;;;14.27;6.85;;;;;;;5.77;69.73;100894.44;5030639;28;20054;-39
2023/12/28 03:01:31;;;;;;;13.38;7.43;;;;;;;5.73;70.90;100888.63;5030616;28;20461;-37
2023/12/28 03:03:56;;;;;;;15.25;7.18;;;;;;;5.87;70.54;100889.97;5029010;28;20025;-39
2023/12/28 03:06:21;;;;;;;14.23;7.32;;;;;;;5.79;70.73;100884.59;5030505;28;20163;-36
2023/12/28 03:08:47;;;;;;;14.45;7.20;;;;;;;5.92;70.35;100892.16;5030438;28;20146;-39
2023/12/28 03:11:12;;;;;;;15.00;7.18;;;;;;;5.90;70.86;100891.47;5030461;28;20029;-37
2023/12/28 03:13:37;;;;;;;17.52;6.80;;;;;;;5.72;69.46;100891.41;5030542;28;20496;-39
2023/12/28 03:16:03;;;;;;;15.75;7.18;;;;;;;5.81;69.78;100887.91;5030301;28;20485;-37
2023/12/28 03:18:29;;;;;;;18.65;7.75;;;;;;;5.83;68.43;100888.59;5030190;28;20071;-40
2023/12/28 03:20:54;;;;;;;13.13;7.57;;;;;;;5.46;71.51;100887.59;5030138;28;20436;-40
2023/12/28 03:23:20;;;;;;;16.67;7.60;;;;;;;5.51;71.22;100875.78;5030208;28;20033;-40
2023/12/28 03:25:45;;;;;;;16.83;7.65;;;;;;;5.49;71.14;100866.16;5030245;28;20128;-39
2023/12/28 03:28:10;;;;;;;11.85;7.32;;;;;;;5.49;71.57;100874.09;5029637;28;20033;-40
2023/12/28 03:30:36;;;;;;;18.05;7.88;;;;;;;5.55;70.75;100862.13;5030213;28;20072;-39
2023/12/28 03:33:01;;;;;;;14.52;7.68;;;;;;;5.47;70.66;100857.56;5029945;28;20096;-38
2023/12/28 03:35:26;;;;;;;17.13;7.93;;;;;;;5.37;72.99;100869.09;5029968;28;20448;-39
2023/12/28 03:37:52;;;;;;;16.15;7.72;;;;;;;5.37;73.36;100861.19;5030078;28;20021;-38
2023/12/28 03:40:17;;;;;;;16.98;8.43;;;;;;;5.37;72.63;100859.41;5029842;28;20060;-40
2023/12/28 03:42:44;;;;;;;13.85;8.15;;;;;;;5.42;73.19;100857.16;5029420;28;20021;-40
2023/12/28 03:45:09;;;;;;;16.67;7.88;;;;;;;5.39;73.36;100861.91;5029873;28;20033;-39
2023/12/28 03:47:35;;;;;;;14.80;8.07;;;;;;;5.38;72.95;100870.78;5029868;28;20025;-37
2023/12/28 03:50:00;;;;;;;17.23;9.23;;;;;;;5.31;73.57;100875.78;5029690;28;20056;-39
2023/12/28 03:52:26;;;;;;;20.75;10.35;;;;;;;5.28;72.09;100868.16;5029743;28;20408;-39
2023/12/28 03:54:51;;;;;;;21.20;9.77;;;;;;;5.18;73.18;100883.16;5029711;28;20044;-39
2023/12/28 03:57:17;;;;;;;20.50;10.27;;;;;;;5.21;74.26;100883.72;5028166;28;20025;-37
2023/12/28 03:59:42;;;;;;;21.92;8.93;;;;;;;5.17;73.28;100877.06;5029351;28;20116;-38
2023/12/28 04:02:07;;;;;;;20.80;8.32;;;;;;;5.29;71.86;100888.28;5029000;28;20478;-40
2023/12/28 04:04:33;;;;;;;17.17;8.07;;;;;;;5.00;72.83;100883.03;5029120;28;20025;-39
2023/12/28 04:06:58;;;;;;;15.43;8.45;;;;;;;4.82;74.16;100875.84;5029614;28;20030;-39
2023/12/28 04:09:23;;;;;;;16.08;8.00;;;;;;;4.89;75.40;100868.19;5029600;28;20505;-39
2023/12/28 04:11:49;;;;;;;18.05;7.95;;;;;;;4.94;74.60;100873.06;5029451;28;20108;-40
2023/12/28 04:14:14;;;;;;;17.13;8.38;;;;;;;4.93;74.24;100877.50;5041756;28;20036;-40
2023/12/28 04:16:40;;;;;;;21.67;8.68;;;;;;;4.96;75.05;100885.13;5049383;28;20156;-40
2023/12/28 04:19:05;;;;;;;13.93;8.05;;;;;;;5.00;75.23;100891.78;5049369;28;20028;-40
2023/12/28 04:21:30;;;;;;;18.30;8.57;;;;;;;5.03;74.24;100873.06;5049309;28;20033;-40
2023/12/28 04:23:56;;;;;;;13.07;7.40;;;;;;;5.25;74.35;100877.22;5049407;28;20024;-40
2023/12/28 04:26:21;;;;;;;15.38;8.23;;;;;;;5.21;73.75;100883.72;5049279;28;20036;-38
2023/12/28 04:28:47;;;;;;;17.27;8.27;;;;;;;5.31;74.29;100891.63;5049327;28;20032;-39
2023/12/28 04:31:12;;;;;;;15.52;8.13;;;;;;;5.25;72.98;100895.69;5049477;28;20104;-40
2023/12/28 04:33:37;;;;;;;16.30;7.30;;;;;;;5.25;73.28;100898.31;5049389;28;20396;-40
2023/12/28 04:36:04;;;;;;;16.02;7.90;;;;;;;5.22;73.60;100895.13;5049245;28;20037;-40
2023/12/28 04:38:30;;;;;;;16.08;8.00;;;;;;;5.15;75.40;100912.50;5049426;28;20139;-39
2023/12/28 04:40:55;;;;;;;15.02;8.50;;;;;;;5.16;74.83;100895.66;5052785;28;20036;-40
2023/12/28 04:43:23;;;;;;;20.70;8.90;;;;;;;5.23;73.49;100905.53;5042062;28;20022;-40
2023/12/28 04:45:49;;;;;;;16.00;7.85;;;;;;;5.19;74.73;100911.22;5013516;28;20034;-40
2023/12/28 04:48:14;;;;;;;15.32;7.70;;;;;;;5.18;74.40;100909.56;5013836;28;20088;-40
2023/12/28 04:50:39;;;;;;;14.77;7.88;;;;;;;5.21;74.09;100902.19;5013976;28;20057;-40
2023/12/28 04:53:05;;;;;;;16.67;7.50;;;;;;;5.33;74.17;100904.69;5013950;28;20030;-40
2023/12/28 04:55:30;;;;;;;14.00;7.47;;;;;;;5.37;73.60;100900.78;5013921;28;20061;-40
2023/12/28 04:57:55;;;;;;;14.25;7.55;;;;;;;5.36;73.08;100901.78;5013890;28;20108;-40
2023/12/28 05:00:21;;;;;;;15.93;7.60;;;;;;;5.39;73.34;100897.06;5013716;28;20029;-41
2023/12/28 05:02:46;;;;;;;12.98;7.75;;;;;;;5.35;72.17;100898.31;5014192;28;20021;-38
2023/12/28 05:05:12;;;;;;;16.05;7.90;;;;;;;5.42;71.74;100907.31;5015356;28;20026;-41
2023/12/28 05:07:38;;;;;;;14.93;7.35;;;;;;;5.28;72.61;100894.56;5034082;28;20018;-39
2023/12/28 05:10:04;;;;;;;13.27;7.28;;;;;;;5.28;71.83;100900.66;5033780;28;20044;-41
2023/12/28 05:12:29;;;;;;;13.18;7.15;;;;;;;5.15;72.06;100894.84;5034049;28;20057;-40
2023/12/28 05:14:55;;;;;;;12.65;7.13;;;;;;;5.17;72.70;100890.25;5033581;28;20029;-41
2023/12/28 05:17:20;;;;;;;11.88;6.20;;;;;;;5.18;71.95;100891.94;5052311;28;20473;-41
2023/12/28 05:19:45;;;;;;;11.77;6.72;;;;;;;5.31;71.38;100885.53;5053553;28;20132;-39
2023/12/28 05:22:12;;;;;;;9.70;6.18;;;;;;;5.36;70.40;100891.22;5053616;28;20540;-39
2023/12/28 05:24:37;;;;;;;10.27;5.40;;;;;;;5.18;71.00;100893.72;5028774;28;20163;-40
2023/12/28 05:27:03;;;;;;;11.25;5.57;;;;;;;5.42;70.21;100890.66;5013734;28;20509;-39
2023/12/28 05:29:28;;;;;;;13.23;5.82;;;;;;;5.27;70.34;100893.75;5013699;28;20113;-38
2023/12/28 05:31:54;;;;;;;10.90;5.50;;;;;;;5.07;70.09;100892.91;5013974;28;20057;-40
2023/12/28 05:34:19;;;;;;;12.77;5.65;;;;;;;5.04;70.19;100900.25;5025103;28;20064;-41
2023/12/28 05:36:45;;;;;;;12.73;5.75;;;;;;;5.08;70.19;100899.00;5029428;28;20037;-39
2023/12/28 05:39:13;;;;;;;9.52;5.75;;;;;;;5.17;69.97;100897.34;5033473;28;20036;-40
2023/12/28 05:41:38;;;;;;;11.20;4.88;;;;;;;5.29;69.98;100889.16;5027141;28;20017;-40
2023/12/28 05:44:04;;;;;;;8.10;4.88;;;;;;;5.18;70.12;100894.56;5024882;28;20112;-38
2023/12/28 05:46:29;;;;;;;11.68;5.45;;;;;;;5.01;70.46;100905.84;5020835;28;20022;-40
2023/12/28 05:48:55;;;;;;;13.00;6.07;;;;;;;5.30;70.56;100903.16;5013398;28;20041;-40
2023/12/28 05:51:21;;;;;;;13.35;6.05;;;;;;;5.26;70.23;100899.16;5012374;28;20046;-40
2023/12/28 05:53:46;;;;;;;11.98;5.78;;;;;;;5.14;71.80;100902.91;5012458;28;20474;-38
2023/12/28 05:56:11;;;;;;;12.93;6.07;;;;;;;5.88;69.61;100907.47;5012172;28;20060;-40
2023/12/28 05:58:38;;;;;;;11.80;5.95;;;;;;;5.85;66.95;100910.41;5012135;28;20022;-40
2023/12/28 06:01:07;;;;;;;13.00;6.32;;;;;;;5.22;67.72;100909.16;5012050;28;20512;-40
2023/12/28 06:03:32;;;;;;;14.07;6.20;;;;;;;4.80;69.44;100916.50;5012047;28;20022;-41
2023/12/28 06:05:58;;;;;;;10.75;5.88;;;;;;;4.68;71.24;100908.72;5012283;28;20026;-40
2023/12/28 06:08:24;;;;;;;9.75;5.78;;;;;;;4.79;71.52;100913.03;5012137;28;20136;-38
2023/12/28 06:10:49;;;;;;;15.18;5.80;;;;;;;5.07;69.28;100915.81;5012638;28;20454;-41
2023/12/28 06:13:14;;;;;;;12.60;7.00;;;;;;;5.60;68.65;100904.78;5024384;28;20025;-40
2023/12/28 06:15:40;;;;;;;12.70;7.28;;;;;;;5.71;67.08;100919.63;5051915;28;20100;-39
2023/12/28 06:18:06;;;;;;;15.32;6.97;;;;;;;6.09;65.90;100919.69;5051283;28;20024;-39
2023/12/28 06:20:31;;;;;;;13.35;6.25;;;;;;;6.43;64.27;100914.63;5051701;28;20053;-40
2023/12/28 06:22:56;;;;;;;9.68;5.45;;;;;;;6.64;63.17;100923.16;5051837;28;20013;-41
2023/12/28 06:25:22;;;;;;;11.95;5.72;;;;;;;6.74;65.23;100925.75;5051896;28;20023;-40
2023/12/28 06:27:47;;;;;;;13.68;7.20;;;;;;;6.94;63.23;100923.78;5050723;28;20059;-39
2023/12/28 06:30:13;;;;;;;13.20;7.32;;;;;;;6.80;62.77;100929.59;5051898;28;20025;-40
2023/12/28 06:32:38;;;;;;;13.00;7.25;;;;;;;7.14;65.19;100937.69;5051769;28;20512;-39
2023/12/28 06:35:04;;;;;;;15.48;7.80;;;;;;;7.39;62.89;100937.91;5051587;28;20075;-40
2023/12/28 06:37:29;;;;;;;13.48;7.07;;;;;;;7.41;61.10;100935.94;5051522;28;20028;-40
2023/12/28 06:39:55;;;;;;;14.45;7.32;;;;;;;7.34;61.33;100941.00;5051756;28;20021;-40
2023/12/28 06:42:20;;;;;;;17.35;7.15;;;;;;;7.52;60.52;100940.13;5051476;28;20017;-40
2023/12/28 06:44:46;;;;;;;13.95;7.00;;;;;;;7.18;61.39;100947.00;5036709;28;20098;-39
2023/12/28 06:47:11;;;;;;;14.02;7.13;;;;;;;7.65;60.55;100943.22;5031592;28;20117;-39
2023/12/28 06:49:36;;;;;;;15.63;8.00;;;;;;;7.96;60.08;100945.41;5031250;28;20049;-39
2023/12/28 06:52:02;;;;;;;17.15;8.95;;;;;;;8.60;57.41;100943.22;5031181;28;20104;-40
2023/12/28 06:54:27;;;;;;;21.55;10.48;;;;;;;8.64;57.09;100949.88;5031510;28;20097;-39
2023/12/28 06:56:53;;;;;;;15.38;7.60;;;;;;;8.98;55.32;100947.13;5031274;28;20444;-39
2023/12/28 06:59:18;;;;;;;13.48;7.72;;;;;;;9.18;54.58;100952.97;5031175;28;20068;-39
2023/12/28 07:01:48;;;;;;;16.40;8.68;;;;;;;9.36;57.37;100951.97;5030215;28;20034;-40
2023/12/28 07:04:13;;;;;;;11.68;7.13;;;;;;;8.99;55.36;100954.09;5031242;28;20049;-39
2023/12/28 07:06:38;;;;;;;14.23;7.55;;;;;;;8.70;57.04;100954.56;5031233;28;20060;-40
2023/12/28 07:09:04;;;;;;;17.25;8.25;;;;;;;8.89;56.61;100948.13;5031370;28;20570;-38
2023/12/28 07:11:30;;;;;;;20.48;8.57;;;;;;;9.48;55.25;100944.50;5031256;28;20086;-38
2023/12/28 07:13:55;;;;;;;20.85;10.63;;;;;;;9.89;54.17;100941.81;5031054;28;20453;-39
2023/12/28 07:16:20;;;;;;;19.00;10.93;;;;;;;9.77;54.83;100950.13;5031087;28;20025;-38
2023/12/28 07:18:46;;;;;;;23.85;10.35;;;;;;;10.17;53.76;100927.09;5031308;28;20048;-39
2023/12/28 07:21:11;;;;;;;23.10;10.80;;;;;;;10.61;52.16;100947.06;5030799;28;20017;-40
2023/12/28 07:23:38;;;;;;;20.13;11.32;;;;;;;10.68;52.20;100950.69;5031127;28;20417;-40
2023/12/28 07:26:03;;;;;;;22.48;11.38;;;;;;;11.00;51.51;100948.00;5030618;28;20331;-27
2023/12/28 07:28:29;;;;;;;19.83;11.15;;;;;;;10.71;51.73;100945.00;5030523;28;20147;-26
2023/12/28 07:30:54;;;;;;;17.63;10.02;;;;;;;10.87;52.74;100949.41;5030991;28;20028;-27
2023/12/28 07:33:20;;;;;;;16.98;9.15;;;;;;;10.54;53.08;100951.41;5031058;28;20033;-27
2023/12/28 07:35:45;;;;;;;15.70;8.52;;;;;;;10.65;53.36;100951.03;5030593;28;20075;-26
2023/12/28 07:38:11;;;;;;;18.25;8.95;;;;;;;10.57;53.32;100956.41;5034885;28;20071;-27
2023/12/28 07:40:37;;;;;;;21.17;9.15;;;;;;;10.65;52.66;100952.88;5050697;28;20060;-27
2023/12/28 07:43:03;;;;;;;17.17;9.02;;;;;;;11.12;52.45;100958.06;5050632;28;20029;-28
2023/12/28 07:45:28;;;;;;;17.35;9.25;;;;;;;11.29;50.66;100961.44;5012475;28;20018;-27
2023/12/28 07:47:54;;;;;;;16.23;9.32;;;;;;;11.08;51.01;100964.75;5011053;28;20419;-27
2023/12/28 07:50:20;;;;;;;19.17;9.63;;;;;;;11.58;50.21;100965.19;5010745;28;20065;-26
2023/12/28 07:52:46;;;;;;;16.38;9.43;;;;;;;11.66;49.57;100954.44;5010824;28;20539;-26
2023/12/28 07:55:12;;;;;;;20.08;9.80;;;;;;;12.00;48.85;100955.00;5011228;28;20450;-27
2023/12/28 07:57:37;;;;;;;17.35;9.55;;;;;;;12.17;49.78;100958.31;5010788;28;20088;-27
2023/12/28 08:00:03;;;;;;;15.10;9.30;;;;;;;12.08;48.55;100955.72;5010993;28;20044;-27
2023/12/28 08:02:29;;;;;;;16.00;9.73;;;;;;;11.71;49.21;100962.75;5027467;28;20125;-40
2023/12/28 08:04:54;;;;;;;16.88;8.85;;;;;;;11.78;49.42;100960.16;5030406;28;20088;-40
2023/12/28 08:07:20;;;;;;;22.85;10.50;;;;;;;11.88;49.10;100957.22;5030465;28;20025;-39
2023/12/28 08:09:45;;;;;;;19.25;10.02;;;;;;;12.04;48.92;100943.75;5030541;28;20025;-40
2023/12/28 08:12:10;;;;;;;22.02;10.27;;;;;;;12.10;49.27;100955.53;5030277;28;20096;-39
2023/12/28 08:14:36;;;;;;;22.05;9.93;;;;;;;11.96;49.20;100951.88;5033409;28;20018;-40
2023/12/28 08:17:01;;;;;;;19.17;9.90;;;;;;;12.07;48.69;100953.22;5033831;28;20101;-40
2023/12/28 08:19:26;;;;;;;21.85;10.13;;;;;;;12.10;48.99;100953.69;5033898;28;20025;-40
2023/12/28 08:21:52;;;;;;;18.00;9.18;;;;;;;12.61;48.90;100960.09;5033978;28;20094;-41
2023/12/28 08:24:17;;;;;;;12.60;7.53;;;;;;;12.96;46.85;100963.78;5033965;28;20347;-40
2023/12/28 08:26:43;;;;;;;15.15;8.05;;;;;;;13.11;46.63;100967.22;5032847;28;20053;-39
2023/12/28 08:29:08;;;;;;;14.70;8.38;;;;;;;12.95;46.37;100956.78;5032325;28;20494;-40
2023/12/28 08:31:33;;;;;;;12.88;7.95;;;;;;;13.22;45.85;100965.09;5032392;28;20049;-40
2023/12/28 08:33:59;;;;;;;13.95;8.27;;;;;;;12.91;46.21;100959.00;5032497;28;20026;-40
2023/12/28 08:36:24;;;;;;;13.45;8.43;;;;;;;12.89;46.64;100966.41;5033172;28;20535;-40
2023/12/28 08:38:49;;;;;;;13.35;8.00;;;;;;;13.34;45.39;100960.88;5024211;28;20568;-40
2023/12/28 08:41:23;;;;;;;13.32;8.60;;;;;;;13.71;44.10;100956.28;5019250;28;20104;-40
2023/12/28 08:43:49;;;;;;;15.32;8.57;;;;;;;13.67;43.92;100950.47;5022489;28;20017;-41
2023/12/28 08:46:15;;;;;;;19.52;9.10;;;;;;;13.25;45.69;100948.63;5033681;28;20495;-40
2023/12/28 08:48:41;;;;;;;16.45;8.95;;;;;;;13.01;45.64;100952.53;5033582;28;20029;-41
2023/12/28 08:51:06;;;;;;;18.50;8.82;;;;;;;12.65;47.02;100943.50;5033612;28;20144;-41
2023/12/28 08:53:32;;;;;;;15.23;8.70;;;;;;;12.84;46.24;100942.09;5033676;28;20125;-41
2023/12/28 08:55:57;;;;;;;19.33;9.20;;;;;;;13.18;46.47;100942.44;5033772;28;20051;-39
2023/12/28 08:58:22;;;;;;;18.95;10.15;;;;;;;12.94;46.71;100936.44;5033814;28;20052;-39
2023/12/28 09:00:48;;;;;;;19.55;10.75;;;;;;;13.07;46.25;100933.06;5033433;28;20438;-39
2023/12/28 09:03:14;;;;;;;20.70;10.43;;;;;;;13.08;46.38;100918.69;5032595;28;20095;-41
2023/12/28 09:05:39;;;;;;;18.48;9.85;;;;;;;13.44;46.07;100928.47;5031626;28;20464;-41
2023/12/28 09:08:05;;;;;;;18.20;9.98;;;;;;;13.78;45.07;100924.22;5032766;28;20029;-40
2023/12/28 09:10:31;;;;;;;18.13;9.68;;;;;;;13.24;45.62;100917.59;5033247;28;20029;-40
2023/12/28 09:12:56;;;;;;;15.90;8.68;;;;;;;12.95;46.30;100910.56;5032548;28;20044;-40
2023/12/28 09:15:22;;;;;;;12.15;7.90;;;;;;;13.16;45.50;100905.19;5033219;28;20071;-40
2023/12/28 09:17:47;;;;;;;11.20;8.13;;;;;;;13.25;45.48;100904.03;5033254;28;20044;-40
2023/12/28 09:20:13;;;;;;;13.02;8.05;;;;;;;13.22;45.52;100899.06;5032249;28;20393;-27
2023/12/28 09:22:38;;;;;;;11.20;7.22;;;;;;;13.48;44.74;100900.34;5052773;28;20029;-27
2023/12/28 09:25:04;;;;;;;15.38;8.00;;;;;;;13.32;45.31;100890.75;5051686;28;20033;-28
2023/12/28 09:27:30;;;;;;;15.48;7.78;;;;;;;13.24;45.24;100883.66;5052868;28;20468;-27
2023/12/28 09:29:55;;;;;;;16.90;8.30;;;;;;;13.65;44.36;100880.31;5053046;28;20532;-27
2023/12/28 09:32:21;;;;;;;13.05;7.15;;;;;;;13.74;44.07;100867.59;5052946;28;20017;-27
2023/12/28 09:34:46;;;;;;;13.48;7.78;;;;;;;13.78;43.77;100863.50;5052776;28;20035;-27
2023/12/28 09:37:12;;;;;;;14.10;7.53;;;;;;;13.55;44.21;100860.28;5053002;28;20031;-26
2023/12/28 09:39:37;;;;;;;12.52;7.72;;;;;;;13.69;43.74;100854.00;5052655;28;20035;-27
2023/12/28 09:42:06;;;;;;;14.88;7.50;;;;;;;13.99;43.20;100832.31;5052359;28;20657;-28
2023/12/28 09:44:38;;;;;;;13.10;8.00;;;;;;;13.68;43.63;100834.44;5052209;28;20033;-27
2023/12/28 09:47:06;;;;;;;13.02;7.97;;;;;;;13.37;44.35;100832.19;5052353;28;20037;-28
2023/12/28 09:49:33;;;;;;;13.75;8.65;;;;;;;13.19;45.25;100821.94;5052257;28;20061;-27
2023/12/28 09:51:58;;;;;;;12.88;8.50;;;;;;;13.29;45.13;100821.63;5052869;28;20025;-27
2023/12/28 09:54:23;;;;;;;16.45;8.85;;;;;;;13.80;44.12;100826.69;5053134;28;20116;-28
2023/12/28 09:56:49;;;;;;;16.15;8.60;;;;;;;13.57;44.15;100805.56;5052451;28;20052;-27
2023/12/28 09:59:17;;;;;;;14.65;8.38;;;;;;;13.81;43.20;100819.50;5052466;28;20029;-27
2023/12/28 10:01:45;;;;;;;18.00;8.90;;;;;;;13.99;43.03;100817.09;5051030;28;20036;-27
2023/12/28 10:04:11;;;;;;;16.65;8.98;;;;;;;13.64;44.13;100808.28;5052383;28;20020;-28
2023/12/28 10:06:36;;;;;;;18.25;9.32;;;;;;;13.89;43.77;100808.59;5051968;28;20128;-28
2023/12/28 10:09:01;;;;;;;17.38;9.48;;;;;;;13.68;43.67;100802.31;5051925;28;20036;-27
2023/12/28 10:11:27;;;;;;;19.38;8.88;;;;;;;13.93;43.37;100798.34;5052047;28;20028;-27
2023/12/28 10:13:53;;;;;;;22.05;8.65;;;;;;;13.65;44.24;100785.84;5051767;28;20025;-29
2023/12/28 10:16:19;;;;;;;18.67;8.27;;;;;;;13.57;44.36;100778.81;5051990;28;20049;-27
2023/12/28 10:18:45;;;;;;;18.67;8.63;;;;;;;13.51;44.54;100778.78;5051135;28;20104;-27
2023/12/28 10:21:13;;;;;;;13.32;7.18;;;;;;;13.64;43.61;100774.34;5012248;28;20033;-28
2023/12/28 10:23:39;;;;;;;13.88;7.90;;;;;;;13.86;43.70;100774.25;5012364;28;20425;-27
2023/12/28 10:26:05;;;;;;;16.33;9.18;;;;;;;13.93;43.29;100767.03;5012334;28;20480;-27
2023/12/28 10:28:33;;;;;;;17.85;8.93;;;;;;;14.12;42.78;100761.97;5012049;28;20026;-27
2023/12/28 10:30:58;;;;;;;16.17;9.27;;;;;;;14.22;42.17;100755.19;5011981;28;20014;-27
2023/12/28 10:33:24;;;;;;;21.30;11.18;;;;;;;14.16;42.51;100764.00;5012061;28;20442;-28
2023/12/28 10:35:52;;;;;;;12.77;8.15;;;;;;;14.25;41.93;100753.97;5011945;28;20021;-28
2023/12/28 10:38:19;;;;;;;13.70;7.07;;;;;;;14.47;41.56;100755.44;5011557;28;20109;-27
2023/12/28 10:40:45;;;;;;;14.98;7.65;;;;;;;14.23;42.48;100751.47;5011646;28;20026;-27
2023/12/28 10:43:14;;;;;;;12.30;7.82;;;;;;;14.81;41.89;100740.25;5012255;28;20022;-27
2023/12/28 10:45:39;;;;;;;15.43;7.55;;;;;;;14.68;41.45;100732.22;5012323;28;20034;-27
2023/12/28 10:48:07;;;;;;;14.90;7.47;;;;;;;14.26;42.38;100736.88;5011786;28;20033;-30
2023/12/28 10:50:46;;;;;;;15.07;8.30;;;;;;;14.59;40.99;100733.44;5011753;28;20505;-28
2023/12/28 10:53:31;;;;;;;17.38;8.75;;;;;;;14.77;41.42;100725.59;5012005;28;20049;-27
2023/12/28 10:56:11;;;;;;;16.67;7.90;;;;;;;14.25;42.21;100719.97;5011802;28;20030;-27
2023/12/28 10:58:50;;;;;;;14.55;7.40;;;;;;;14.36;41.46;100720.41;5011790;28;20021;-28
2023/12/28 11:01:25;;;;;;;16.92;8.00;;;;;;;13.71;43.33;100702.16;5011737;28;20040;-26
2023/12/28 11:04:14;;;;;;;17.10;8.23;;;;;;;14.01;43.18;100716.03;5011607;28;20101;-28
2023/12/28 11:06:42;;;;;;;19.65;9.48;;;;;;;14.80;48.25;100709.09;5011572;28;20038;-27
2023/12/28 11:09:10;;;;;;;15.70;8.10;;;;;;;15.81;40.86;100710.47;5011771;28;20056;-27
2023/12/28 11:11:36;;;;;;;15.27;8.75;;;;;;;15.94;44.42;100706.91;5011951;28;20045;-28
2023/12/28 11:14:03;;;;;;;14.90;8.30;;;;;;;16.01;39.60;100690.75;5011717;28;20030;-28
2023/12/28 11:16:29;;;;;;;13.55;8.00;;;;;;;16.37;42.14;100698.16;5014797;28;20026;-29